Currently 40°F in Murrieta, California, USA
40°F
62°F / 34°F
calm
0.00"
Friday, February 24, 2017 10:50 PM PST

Murrieta, California Weather Summary
Last 36 Hours

Temperature Winds Hourly Humidity Dewpoint
Time Report Norm Report Norm Max Gusts Precip. Rpt. Norm Rpt. Norm Pressure
1Fri 10:50 PM  40.4°F  49°F  calm  2 mph  3 mph  0.00"  85%  86%  36°F  45°F  30.20"
Fri 10:00 PM  41.6°F  50°F  calm  2 mph  7 mph  0.00"  83%  85%  36°F  45°F  30.20"
Fri 09:00 PM  44.6°F  51°F  calm  2 mph  7 mph  0.00"  77%  82%  37°F  46°F  30.19"
Fri 08:00 PM  46.4°F  52°F  calm  3 mph  10 mph  0.00"  72%  79%  37°F  46°F  30.19"
Fri 07:00 PM  48.4°F  54°F  6 mph SW  4 mph  14 mph  0.00"  65%  76%  37°F  47°F  30.17"
Fri 06:00 PM  52.9°F  56°F  4 mph W  5 mph  14 mph  0.00"  63%  72%  40°F  47°F  30.16"
Fri 05:00 PM  56.0°F  60°F  calm  5 mph  13 mph  0.00"  63%  65%  43°F  48°F  30.14"
Fri 04:00 PM  60.9°F  62°F  5 mph SW  6 mph  10 mph  0.00"  52%  59%  42°F  47°F  30.13"
Fri 03:00 PM  61.9°F  64°F  5 mph SW  5 mph  12 mph  0.00"  47%  55%  41°F  47°F  30.13"
2Fri 02:35 PM  62.1°F  65°F  calm  5 mph  9 mph  ----  43%  55%  39°F  47°F  30.13"
Fri 02:00 PM  61.5°F  65°F  5 mph SW  5 mph  8 mph  0.00"  43%  54%  38°F  47°F  30.14"
Fri 01:00 PM  61.6°F  65°F  4 mph NE  5 mph  10 mph  0.00"  44%  55%  39°F  47°F  30.16"
Fri 12:00 PM  58.0°F  64°F  calm  5 mph  9 mph  0.00"  49%  57%  38°F  48°F  30.18"
Fri 11:00 AM  56.3°F  61°F  6 mph NE  4 mph  6 mph  0.00"  55%  63%  40°F  48°F  30.20"
Fri 10:00 AM  50.0°F  57°F  2 mph S  3 mph  6 mph  0.00"  70%  72%  40°F  48°F  30.21"
Fri 09:00 AM  47.5°F  53°F  calm  2 mph  6 mph  0.00"  76%  82%  40°F  48°F  30.21"
Fri 08:00 AM  41.5°F  48°F  calm  1 mph  none  0.00"  89%  89%  38°F  45°F  30.19"
Fri 07:00 AM  35.3°F  45°F  calm  1 mph  1 mph  0.00"  97%  92%  34°F  43°F  30.17"
3Fri 06:30 AM  33.8°F  44°F  calm  1 mph  none  ----  96%  92%  33°F  42°F  30.16"
Fri 06:00 AM  33.9°F  45°F  calm  1 mph  2 mph  0.00"  96%  92%  33°F  42°F  30.14"
Fri 05:00 AM  34.5°F  45°F  1 mph W  1 mph  4 mph  0.00"  96%  91%  33°F  43°F  30.13"
Fri 04:00 AM  35.3°F  46°F  calm  1 mph  4 mph  0.00"  96%  91%  34°F  43°F  30.13"
Fri 03:00 AM  36.0°F  46°F  calm  1 mph  4 mph  0.00"  95%  90%  35°F  43°F  30.13"
Fri 02:00 AM  37.1°F  47°F  1 mph W  1 mph  6 mph  0.00"  92%  89%  35°F  44°F  30.14"
Fri 01:00 AM  38.6°F  47°F  3 mph SW  1 mph  7 mph  0.00"  90%  88%  36°F  44°F  30.14"
Fri 12:00 AM  40.2°F  48°F  4 mph W  1 mph  10 mph  0.00"  87%  88%  36°F  45°F  30.14"
Thu 11:00 PM  41.9°F  49°F  6 mph SW  2 mph  8 mph  0.00"  85%  87%  37°F  45°F  30.13"
Thu 10:00 PM  42.4°F  50°F  calm  2 mph  5 mph  0.00"  82%  85%  37°F  46°F  30.12"
Thu 09:00 PM  45.2°F  51°F  calm  2 mph  10 mph  0.00"  77%  83%  38°F  46°F  30.11"
Thu 08:00 PM  46.9°F  52°F  calm  3 mph  none  0.00"  72%  80%  38°F  46°F  30.10"
Thu 07:00 PM  47.8°F  54°F  calm  4 mph  14 mph  0.00"  68%  77%  37°F  47°F  30.08"
Thu 06:00 PM  49.3°F  56°F  6 mph SW  5 mph  13 mph  0.00"  65%  73%  37°F  47°F  30.06"
Thu 05:00 PM  51.6°F  59°F  6 mph W  5 mph  18 mph  0.00"  59%  67%  37°F  48°F  30.04"
Thu 04:00 PM  54.2°F  62°F  calm  6 mph  13 mph  0.00"  50%  60%  35°F  47°F  30.03"
Thu 03:00 PM  58.8°F  64°F  1 mph SW  6 mph  17 mph  0.00"  44%  56%  36°F  47°F  30.02"
Thu 02:00 PM  60.3°F  65°F  calm  6 mph  10 mph  0.00"  41%  54%  35°F  47°F  30.02"
Thu 01:00 PM  60.9°F  64°F  calm  5 mph  10 mph  0.00"  38%  55%  34°F  47°F  30.03"
Thu 12:00 PM  57.9°F  64°F  calm  5 mph  11 mph  0.00"  46%  58%  36°F  48°F  30.05"
Thu 11:00 AM  56.7°F  61°F  calm  4 mph  10 mph  0.00"  48%  63%  36°F  48°F  30.09"

  1. Current weather data. No green row appears if the current weather data is also the high or low for the current day.
  2. High temperature for the current day.
  3. Low temperature for the current day.

The Murrieta weather pages are a service of WeatherCurrents. Murrieta, California is located in the Temecula Valley, in southwestern Riverside County, at the junctions of the Interstate 15 and 215 highways.
Copyright ©Fri Feb 24 22:50:50 PST 2017  WeatherCurrents. All rights reserved. - Submit questions and comments - Privacy Policy

This page automatically refreshes every 10 minutes.